createdAt,value
2018-06-05T00:01:17.152Z,18.00
2018-06-05T00:03:46.421Z,20.10
2018-06-05T00:06:15.672Z,18.63
2018-06-05T00:08:44.637Z,18.20
2018-06-05T00:11:13.949Z,18.40
2018-06-05T00:13:43.114Z,19.90
2018-06-05T00:16:12.081Z,20.00
2018-06-05T00:18:40.945Z,20.90
2018-06-05T00:21:10.130Z,20.53
2018-06-05T00:23:39.609Z,22.40
2018-06-05T00:26:08.806Z,20.03
2018-06-05T00:28:37.842Z,21.57
2018-06-05T00:31:07.509Z,22.70
2018-06-05T00:33:37.168Z,20.73
2018-06-05T00:36:06.292Z,20.93
2018-06-05T00:38:35.442Z,20.90
2018-06-05T00:41:04.627Z,22.07
2018-06-05T00:43:33.813Z,19.00
2018-06-05T00:46:02.709Z,20.30
2018-06-05T00:48:31.892Z,21.20
2018-06-05T00:51:01.484Z,18.17
2018-06-05T00:53:30.651Z,20.00
2018-06-05T00:56:00.119Z,19.50
2018-06-05T00:58:29.353Z,19.90
2018-06-05T01:00:58.331Z,18.57
2018-06-05T01:03:27.378Z,21.20
2018-06-05T01:05:56.501Z,20.00
2018-06-05T01:08:25.750Z,20.73
2018-06-05T01:10:54.962Z,22.80
2018-06-05T01:13:24.125Z,23.83
2018-06-05T01:15:53.005Z,24.67
2018-06-05T01:18:22.595Z,25.60
2018-06-05T01:20:51.466Z,26.33
2018-06-05T01:23:20.790Z,27.23
2018-06-05T01:25:50.179Z,26.70
2018-06-05T01:28:19.572Z,27.17
2018-06-05T01:30:48.687Z,27.97
2018-06-05T01:33:17.709Z,28.33
2018-06-05T01:35:47.182Z,25.70
2018-06-05T01:38:16.018Z,28.40
2018-06-05T01:40:45.843Z,28.37
2018-06-05T01:43:15.105Z,28.70
2018-06-05T01:45:45.008Z,28.23
2018-06-05T01:48:14.557Z,27.70
2018-06-05T01:50:43.630Z,27.63
2018-06-05T01:53:13.372Z,27.73
2018-06-05T01:55:42.354Z,28.47
2018-06-05T01:58:11.530Z,28.57
2018-06-05T02:00:40.493Z,29.23
2018-06-05T02:03:09.939Z,28.13
2018-06-05T02:05:39.094Z,28.47
2018-06-05T02:08:08.551Z,26.13
2018-06-05T02:10:37.449Z,27.23
2018-06-05T02:13:06.643Z,27.73
2018-06-05T02:15:35.832Z,26.60
2018-06-05T02:18:04.948Z,26.87
2018-06-05T02:20:34.015Z,26.17
2018-06-05T02:23:02.815Z,24.50
2018-06-05T02:25:31.930Z,23.40
2018-06-05T02:28:01.416Z,21.97
2018-06-05T02:30:30.923Z,24.33
2018-06-05T02:33:00.582Z,21.00
2018-06-05T02:35:29.445Z,19.70
2018-06-05T02:37:58.339Z,19.93
2018-06-05T02:40:27.470Z,18.30
2018-06-05T02:42:56.421Z,19.40
2018-06-05T02:45:25.311Z,19.23
2018-06-05T02:47:54.193Z,21.23
2018-06-05T02:50:23.094Z,19.57
2018-06-05T02:52:52.228Z,19.53
2018-06-05T02:55:21.125Z,18.67
2018-06-05T02:57:49.969Z,19.03
2018-06-05T03:00:18.786Z,19.10
2018-06-05T03:02:51.457Z,18.50
2018-06-05T03:05:20.284Z,18.33
2018-06-05T03:07:49.523Z,17.57
2018-06-05T03:10:18.665Z,19.30
2018-06-05T03:12:47.607Z,18.60
2018-06-05T03:15:17.411Z,18.60
2018-06-05T03:17:46.336Z,19.67
2018-06-05T03:20:16.115Z,18.80
2018-06-05T03:22:45.304Z,17.47
2018-06-05T03:25:14.801Z,17.00
2018-06-05T03:27:43.675Z,18.20
2018-06-05T03:30:12.981Z,17.47
2018-06-05T03:32:42.096Z,19.13
2018-06-05T03:35:11.278Z,18.03
2018-06-05T03:37:40.821Z,17.77
2018-06-05T03:40:09.613Z,16.53
2018-06-05T03:42:38.812Z,15.70
2018-06-05T03:45:08.578Z,15.83
2018-06-05T03:47:37.990Z,15.70
2018-06-05T03:50:07.383Z,14.80
2018-06-05T03:52:36.480Z,15.63
2018-06-05T03:55:06.021Z,16.37
2018-06-05T03:57:35.247Z,14.80
2018-06-05T04:00:04.049Z,15.37
2018-06-05T04:02:33.167Z,16.40
2018-06-05T04:05:02.549Z,14.83
2018-06-05T04:07:31.777Z,14.70
2018-06-05T04:10:01.240Z,13.00
2018-06-05T04:12:30.435Z,14.40
2018-06-05T04:14:59.573Z,14.00
2018-06-05T04:17:28.381Z,12.90
2018-06-05T04:19:57.776Z,11.53
2018-06-05T04:22:26.898Z,11.80
2018-06-05T04:24:56.124Z,11.57
2018-06-05T04:27:25.260Z,11.00
2018-06-05T04:29:54.382Z,11.27
2018-06-05T04:32:23.623Z,10.90
2018-06-05T04:34:52.754Z,11.30
2018-06-05T04:37:22.276Z,10.87
2018-06-05T04:39:51.087Z,11.20
2018-06-05T04:42:20.296Z,12.30
2018-06-05T04:44:49.402Z,10.93
2018-06-05T04:47:18.232Z,9.70
2018-06-05T04:49:48.803Z,11.10
2018-06-05T04:52:17.971Z,10.20
2018-06-05T04:54:47.042Z,9.93
2018-06-05T04:57:15.895Z,11.17
2018-06-05T04:59:45.053Z,9.73
2018-06-05T05:02:14.617Z,8.23
2018-06-05T05:04:50.270Z,9.93
2018-06-05T05:07:19.111Z,9.80
2018-06-05T05:09:47.933Z,9.20
2018-06-05T05:12:17.367Z,9.90
2018-06-05T05:14:46.243Z,10.07
2018-06-05T05:17:15.074Z,8.70
2018-06-05T05:19:43.918Z,8.47
2018-06-05T05:22:13.464Z,8.57
2018-06-05T05:24:42.393Z,9.83
2018-06-05T05:27:11.770Z,9.60
2018-06-05T05:29:41.513Z,9.07
2018-06-05T05:32:10.617Z,9.60
2018-06-05T05:34:39.754Z,9.13
2018-06-05T05:37:08.874Z,9.63
2018-06-05T05:39:38.174Z,9.97
2018-06-05T05:42:07.233Z,10.50
2018-06-05T05:44:36.890Z,9.50
2018-06-05T05:47:05.840Z,10.00
2018-06-05T05:49:35.103Z,10.80
2018-06-05T05:52:04.023Z,10.03
2018-06-05T05:54:33.158Z,10.20
2018-06-05T05:57:02.741Z,10.70
2018-06-05T05:59:31.576Z,10.80
2018-06-05T06:02:00.879Z,11.27
2018-06-05T06:04:29.917Z,11.40
2018-06-05T06:06:59.449Z,11.70
2018-06-05T06:09:28.629Z,12.00
2018-06-05T06:11:57.488Z,12.70
2018-06-05T06:14:26.649Z,11.23
2018-06-05T06:16:55.811Z,11.43
2018-06-05T06:19:24.856Z,11.50
2018-06-05T06:21:53.760Z,11.23
2018-06-05T06:24:22.726Z,10.17
2018-06-05T06:26:51.696Z,10.60
2018-06-05T06:29:20.636Z,11.33
2018-06-05T06:31:49.538Z,13.70
2018-06-05T06:34:18.413Z,10.50
2018-06-05T06:36:47.904Z,11.00
2018-06-05T06:39:17.159Z,11.40
2018-06-05T06:41:46.484Z,12.40
2018-06-05T06:44:15.328Z,11.60
2018-06-05T06:46:44.213Z,12.70
2018-06-05T06:49:13.754Z,9.90
2018-06-05T06:51:43.003Z,11.03
2018-06-05T06:54:12.829Z,9.90
2018-06-05T06:56:41.934Z,9.77
2018-06-05T06:59:11.360Z,10.60
2018-06-05T07:01:40.775Z,9.93
2018-06-05T07:04:10.523Z,9.20
2018-06-05T07:06:39.327Z,9.63
2018-06-05T07:09:09.283Z,10.70
2018-06-05T07:11:38.607Z,9.00
2018-06-05T07:14:08.102Z,11.23
2018-06-05T07:16:37.499Z,8.60
2018-06-05T07:19:06.627Z,9.77
2018-06-05T07:21:35.978Z,8.40
2018-06-05T07:24:05.217Z,9.70
2018-06-05T07:26:34.316Z,9.93
2018-06-05T07:29:03.748Z,9.97
2018-06-05T07:31:33.044Z,10.00
2018-06-05T07:34:02.115Z,9.97
2018-06-05T07:36:31.099Z,9.30
2018-06-05T07:39:00.403Z,9.63
2018-06-05T07:41:29.539Z,8.50
2018-06-05T07:43:58.978Z,9.73
2018-06-05T07:46:27.991Z,9.13
2018-06-05T07:48:57.476Z,9.93
2018-06-05T07:51:26.580Z,8.57
2018-06-05T07:53:55.382Z,9.63
2018-06-05T07:56:24.486Z,8.03
2018-06-05T07:58:53.327Z,9.37
2018-06-05T08:01:22.191Z,8.37
2018-06-05T08:03:51.257Z,9.00
2018-06-05T08:06:20.280Z,7.13
2018-06-05T08:08:49.930Z,7.93
2018-06-05T08:11:19.633Z,7.90
2018-06-05T08:13:49.059Z,6.83
2018-06-05T08:16:18.563Z,8.33
2018-06-05T08:18:47.378Z,8.90
2018-06-05T08:21:17.168Z,9.10
2018-06-05T08:23:46.380Z,9.60
2018-06-05T08:26:15.431Z,9.10
2018-06-05T08:28:44.387Z,8.20
2018-06-05T08:31:13.758Z,9.27
2018-06-05T08:33:42.874Z,9.97
2018-06-05T08:36:11.744Z,10.00
2018-06-05T08:38:40.953Z,8.20
2018-06-05T08:41:10.035Z,7.63
2018-06-05T08:43:39.276Z,8.13
2018-06-05T08:46:08.401Z,8.47
2018-06-05T08:48:37.892Z,8.17
2018-06-05T08:51:07.622Z,8.13
2018-06-05T08:53:36.760Z,8.70
2018-06-05T08:56:05.948Z,9.73
2018-06-05T08:58:35.625Z,9.23
2018-06-05T09:01:05.173Z,10.40
2018-06-05T09:03:33.971Z,10.50
2018-06-05T09:06:03.061Z,10.13
2018-06-05T09:08:33.002Z,10.23
2018-06-05T09:11:02.732Z,11.03
2018-06-05T09:13:32.406Z,8.47
2018-06-05T09:16:01.473Z,9.73
2018-06-05T09:18:30.729Z,9.63
2018-06-05T09:20:59.911Z,8.87
2018-06-05T09:23:28.730Z,9.27
2018-06-05T09:25:57.691Z,9.67
2018-06-05T09:28:27.173Z,10.00
2018-06-05T09:30:56.040Z,9.83
2018-06-05T09:33:25.053Z,10.77
2018-06-05T09:35:54.278Z,9.77
2018-06-05T09:38:23.049Z,9.57
2018-06-05T09:40:52.186Z,9.20
2018-06-05T09:43:21.355Z,10.03
2018-06-05T09:45:51.303Z,9.23
2018-06-05T09:48:20.866Z,9.63
2018-06-05T09:50:50.116Z,9.70
2018-06-05T09:53:19.821Z,9.30
2018-06-05T09:55:48.990Z,9.73
2018-06-05T09:58:18.179Z,9.40
2018-06-05T10:00:53.484Z,8.33
2018-06-05T10:03:22.869Z,9.20
2018-06-05T10:05:52.195Z,9.07
2018-06-05T10:08:21.736Z,9.73
2018-06-05T10:10:50.727Z,7.53
2018-06-05T10:13:19.831Z,8.20
2018-06-05T10:15:48.893Z,9.27
2018-06-05T10:18:18.261Z,9.13
2018-06-05T10:20:48.051Z,9.70
2018-06-05T10:23:16.996Z,8.50
2018-06-05T10:25:45.953Z,9.40
2018-06-05T10:28:15.203Z,8.37
2018-06-05T10:30:44.340Z,7.20
2018-06-05T10:33:13.875Z,8.33
2018-06-05T10:35:43.116Z,8.10
2018-06-05T10:38:12.019Z,7.90
2018-06-05T10:40:41.351Z,9.30
2018-06-05T10:43:10.831Z,8.80
2018-06-05T10:45:40.316Z,8.97
2018-06-05T10:48:09.378Z,9.63
2018-06-05T10:50:39.660Z,8.40
2018-06-05T10:53:09.357Z,8.00
2018-06-05T10:55:39.053Z,8.87
2018-06-05T10:58:09.177Z,7.83
2018-06-05T11:00:38.370Z,9.00
2018-06-05T11:03:07.853Z,8.37
2018-06-05T11:05:37.493Z,7.80
2018-06-05T11:08:06.518Z,8.97
2018-06-05T11:10:35.501Z,8.13
2018-06-05T11:13:05.071Z,8.30
2018-06-05T11:15:34.059Z,10.60
2018-06-05T11:18:02.879Z,9.50
2018-06-05T11:20:31.868Z,9.07
2018-06-05T11:23:01.535Z,8.57
2018-06-05T11:25:31.696Z,8.40
2018-06-05T11:28:01.091Z,8.50
2018-06-05T11:30:31.206Z,9.80
2018-06-05T11:33:00.236Z,9.10
2018-06-05T11:35:29.638Z,9.13
2018-06-05T11:37:58.618Z,8.53
2018-06-05T11:40:28.093Z,8.43
2018-06-05T11:42:57.128Z,9.60
2018-06-05T11:45:26.200Z,7.77
2018-06-05T11:47:55.441Z,7.93
2018-06-05T11:50:24.805Z,8.20
2018-06-05T11:52:53.766Z,7.33
2018-06-05T11:55:23.225Z,7.53
2018-06-05T11:57:52.588Z,8.10
2018-06-05T12:00:22.251Z,8.40
2018-06-05T12:03:01.373Z,8.93
2018-06-05T12:05:30.311Z,8.20
2018-06-05T12:07:59.558Z,8.07
2018-06-05T12:10:28.725Z,7.33
2018-06-05T12:12:57.836Z,7.50
2018-06-05T12:15:26.655Z,7.60
2018-06-05T12:17:55.496Z,8.50
2018-06-05T12:20:24.590Z,8.80
2018-06-05T12:22:53.356Z,8.00
2018-06-05T12:25:22.750Z,7.90
2018-06-05T12:27:51.574Z,7.07
2018-06-05T12:30:20.636Z,7.33
2018-06-05T12:32:50.730Z,7.27
2018-06-05T12:35:19.773Z,7.77
2018-06-05T12:37:49.065Z,7.73
2018-06-05T12:40:18.533Z,7.90
2018-06-05T12:42:47.293Z,7.73
2018-06-05T12:45:16.632Z,7.30
2018-06-05T12:47:45.634Z,8.27
2018-06-05T12:50:14.353Z,7.23
2018-06-05T12:52:43.502Z,7.50
2018-06-05T12:55:12.854Z,8.10
2018-06-05T12:57:41.628Z,7.97
2018-06-05T13:00:11.317Z,8.80
2018-06-05T13:02:40.463Z,8.30
2018-06-05T13:05:09.758Z,8.47
2018-06-05T13:07:38.594Z,9.03
2018-06-05T13:10:08.018Z,9.20
2018-06-05T13:12:37.107Z,8.17
2018-06-05T13:15:06.214Z,8.50
2018-06-05T13:17:35.893Z,8.93
2018-06-05T13:20:05.165Z,9.23
2018-06-05T13:22:34.180Z,8.90
2018-06-05T13:25:03.246Z,8.47
2018-06-05T13:27:32.007Z,7.93
2018-06-05T13:30:00.846Z,8.60
2018-06-05T13:32:29.835Z,9.37
2018-06-05T13:34:58.793Z,8.83
2018-06-05T13:37:28.007Z,9.50
2018-06-05T13:39:56.828Z,9.80
2018-06-05T13:42:26.003Z,9.10
2018-06-05T13:44:54.838Z,10.10
2018-06-05T13:47:24.303Z,8.43
2018-06-05T13:49:53.163Z,8.40
2018-06-05T13:52:22.060Z,8.37
2018-06-05T13:54:50.829Z,8.23
2018-06-05T13:57:20.248Z,8.40
2018-06-05T13:59:49.906Z,9.07
2018-06-05T14:02:18.804Z,9.50
2018-06-05T14:04:48.112Z,9.97
2018-06-05T14:07:17.146Z,8.37
2018-06-05T14:09:45.952Z,9.00
2018-06-05T14:12:16.742Z,7.67
2018-06-05T14:14:46.270Z,8.30
2018-06-05T14:17:15.371Z,8.40
2018-06-05T14:19:44.605Z,9.57
2018-06-05T14:22:13.921Z,8.80
2018-06-05T14:24:43.308Z,9.27
2018-06-05T14:27:12.521Z,9.67
2018-06-05T14:29:41.596Z,9.30
2018-06-05T14:32:10.490Z,8.87
2018-06-05T14:34:39.588Z,8.20
2018-06-05T14:37:08.960Z,9.20
2018-06-05T14:39:37.819Z,7.90
2018-06-05T14:42:07.366Z,8.13
2018-06-05T14:44:36.972Z,7.30
2018-06-05T14:47:06.474Z,9.20
2018-06-05T14:49:36.246Z,8.30
2018-06-05T14:52:05.090Z,8.07
2018-06-05T14:54:34.451Z,8.10
2018-06-05T14:57:03.680Z,8.10
2018-06-05T14:59:32.778Z,8.30
2018-06-05T15:02:01.904Z,9.13
2018-06-05T15:04:31.064Z,7.43
2018-06-05T15:07:00.472Z,7.20
2018-06-05T15:09:29.675Z,7.03
2018-06-05T15:11:59.071Z,7.57
2018-06-05T15:14:28.178Z,6.17
2018-06-05T15:16:57.666Z,6.73
2018-06-05T15:19:26.486Z,7.07
2018-06-05T15:21:55.648Z,7.87
2018-06-05T15:24:25.102Z,7.03
2018-06-05T15:26:54.677Z,7.90
2018-06-05T15:29:23.893Z,5.90
2018-06-05T15:31:53.297Z,6.00
2018-06-05T15:34:22.149Z,6.07
2018-06-05T15:36:51.373Z,6.20
2018-06-05T15:39:20.238Z,6.17
2018-06-05T15:41:49.312Z,7.60
2018-06-05T15:44:18.583Z,6.47
2018-06-05T15:46:48.080Z,5.70
2018-06-05T15:49:16.943Z,5.80
2018-06-05T15:51:46.404Z,5.47
2018-06-05T15:54:15.884Z,5.90
2018-06-05T15:56:45.084Z,5.00
2018-06-05T15:59:14.135Z,5.53
2018-06-05T16:01:43.004Z,5.40
2018-06-05T16:04:12.360Z,5.30
2018-06-05T16:06:41.598Z,6.60
2018-06-05T16:09:10.965Z,6.13
2018-06-05T16:11:40.479Z,6.27
2018-06-05T16:14:09.591Z,5.17
2018-06-05T16:16:38.405Z,5.27
2018-06-05T16:19:07.286Z,6.10
2018-06-05T16:21:36.098Z,6.03
2018-06-05T16:24:05.572Z,5.10
2018-06-05T16:26:34.437Z,4.60
2018-06-05T16:29:03.306Z,5.43
2018-06-05T16:31:32.814Z,7.10
2018-06-05T16:34:01.656Z,4.80
2018-06-05T16:36:30.819Z,5.27
2018-06-05T16:39:00.506Z,5.20
2018-06-05T16:41:30.135Z,4.53
2018-06-05T16:43:59.525Z,5.27
2018-06-05T16:46:28.381Z,4.53
2018-06-05T16:48:57.248Z,5.10
2018-06-05T16:51:26.526Z,3.87
2018-06-05T16:53:56.013Z,5.13
2018-06-05T16:56:25.215Z,4.37
2018-06-05T16:58:55.207Z,4.60
2018-06-05T17:01:24.046Z,4.50
2018-06-05T17:03:53.227Z,4.00
2018-06-05T17:06:22.578Z,4.57
2018-06-05T17:08:51.458Z,4.77
2018-06-05T17:11:20.525Z,4.17
2018-06-05T17:13:49.895Z,4.40
2018-06-05T17:16:19.467Z,5.20
2018-06-05T17:18:49.114Z,5.53
2018-06-05T17:21:17.981Z,6.20
2018-06-05T17:23:46.866Z,5.47
2018-06-05T17:26:16.005Z,7.13
2018-06-05T17:28:44.868Z,7.20
2018-06-05T17:31:14.293Z,7.53
2018-06-05T17:33:43.952Z,6.27
2018-06-05T17:36:13.521Z,7.60
2018-06-05T17:38:44.094Z,6.67
2018-06-05T17:41:14.559Z,6.10
2018-06-05T17:43:44.589Z,7.83
2018-06-05T17:46:14.036Z,6.93
2018-06-05T17:48:43.491Z,6.60
2018-06-05T17:51:12.914Z,7.40
2018-06-05T17:53:42.120Z,6.43
2018-06-05T17:56:11.393Z,7.10
2018-06-05T17:58:40.684Z,6.40
2018-06-05T18:01:10.029Z,7.53
2018-06-05T18:03:38.909Z,6.80
2018-06-05T18:06:08.356Z,6.67
2018-06-05T18:08:37.827Z,6.67
2018-06-05T18:11:06.752Z,7.33
2018-06-05T18:13:35.922Z,7.07
2018-06-05T18:16:04.803Z,6.97
2018-06-05T18:18:34.218Z,8.10
2018-06-05T18:21:04.026Z,7.13
2018-06-05T18:23:33.264Z,7.00
2018-06-05T18:26:02.132Z,6.60
2018-06-05T18:28:31.492Z,7.03
2018-06-05T18:31:00.887Z,7.20
2018-06-05T18:33:29.720Z,7.43
2018-06-05T18:35:58.587Z,8.13
2018-06-05T18:38:28.205Z,7.13
2018-06-05T18:40:56.996Z,6.97
2018-06-05T18:43:25.825Z,7.53
2018-06-05T18:45:55.541Z,7.90
2018-06-05T18:48:24.908Z,7.40
2018-06-05T18:50:54.044Z,7.37
2018-06-05T18:53:24.164Z,7.23
2018-06-05T18:55:53.358Z,6.93
2018-06-05T18:58:22.591Z,8.17
2018-06-05T19:00:51.458Z,8.50
2018-06-05T19:03:20.847Z,8.20
2018-06-05T19:05:50.184Z,7.97
2018-06-05T19:08:19.603Z,8.37
2018-06-05T19:10:48.730Z,7.80
2018-06-05T19:13:18.063Z,7.93
2018-06-05T19:15:46.913Z,8.50
2018-06-05T19:18:16.181Z,7.70
2018-06-05T19:20:45.325Z,8.23
2018-06-05T19:23:14.194Z,7.40
2018-06-05T19:25:44.176Z,8.07
2018-06-05T19:28:13.372Z,7.60
2018-06-05T19:30:42.538Z,9.50
2018-06-05T19:33:11.655Z,8.83
2018-06-05T19:35:40.768Z,8.60
2018-06-05T19:38:09.637Z,8.70
2018-06-05T19:40:38.972Z,8.77
2018-06-05T19:43:07.782Z,8.90
2018-06-05T19:45:36.847Z,8.70
2018-06-05T19:48:06.015Z,8.70
2018-06-05T19:50:35.209Z,10.37
2018-06-05T19:53:04.392Z,8.80
2018-06-05T19:55:33.745Z,9.47
2018-06-05T19:58:03.294Z,9.20
2018-06-05T20:00:32.338Z,8.63
2018-06-05T20:03:01.689Z,8.60
2018-06-05T20:05:31.207Z,11.83
2018-06-05T20:08:00.348Z,8.83
2018-06-05T20:10:29.251Z,9.57
2018-06-05T20:12:58.128Z,8.87
2018-06-05T20:15:27.649Z,8.73
2018-06-05T20:17:57.136Z,9.33
2018-06-05T20:20:26.385Z,9.03
2018-06-05T20:22:55.558Z,9.80
2018-06-05T20:25:24.574Z,10.20
2018-06-05T20:27:54.197Z,9.30
2018-06-05T20:30:24.047Z,9.60
2018-06-05T20:32:53.869Z,9.40
2018-06-05T20:35:22.955Z,10.83
2018-06-05T20:37:51.779Z,10.30
2018-06-05T20:40:20.644Z,9.77
2018-06-05T20:42:49.624Z,11.47
2018-06-05T20:45:19.194Z,10.03
2018-06-05T20:47:48.341Z,10.30
2018-06-05T20:50:17.814Z,9.20
2018-06-05T20:52:46.635Z,10.90
2018-06-05T20:55:15.554Z,9.90
2018-06-05T20:57:44.429Z,9.63
2018-06-05T21:00:13.495Z,10.17
2018-06-05T21:02:42.965Z,10.33
2018-06-05T21:05:12.521Z,10.00
2018-06-05T21:07:41.719Z,10.23
2018-06-05T21:10:10.621Z,10.13
2018-06-05T21:12:39.571Z,10.23
2018-06-05T21:15:08.818Z,10.17
2018-06-05T21:17:38.009Z,11.97
2018-06-05T21:20:06.990Z,10.83
2018-06-05T21:22:36.096Z,10.90
2018-06-05T21:25:05.275Z,10.97
2018-06-05T21:27:34.555Z,11.50
2018-06-05T21:30:03.392Z,12.43
2018-06-05T21:32:32.559Z,10.03
2018-06-05T21:35:01.858Z,12.10
2018-06-05T21:37:30.689Z,11.70
2018-06-05T21:39:59.850Z,12.33
2018-06-05T21:42:28.945Z,9.97
2018-06-05T21:44:58.090Z,12.23
2018-06-05T21:47:27.387Z,11.20
2018-06-05T21:49:56.543Z,10.87
2018-06-05T21:52:25.685Z,10.07
2018-06-05T21:54:55.322Z,10.60
2018-06-05T21:57:24.571Z,10.47
2018-06-05T21:59:53.674Z,12.27
2018-06-05T22:02:22.827Z,11.07
2018-06-05T22:04:51.661Z,11.30
2018-06-05T22:07:21.075Z,12.33
2018-06-05T22:09:50.551Z,11.47
2018-06-05T22:12:19.732Z,11.70
2018-06-05T22:14:49.411Z,10.57
2018-06-05T22:17:18.445Z,11.67
2018-06-05T22:19:47.552Z,11.67
2018-06-05T22:22:16.357Z,10.87
2018-06-05T22:24:45.992Z,10.87
2018-06-05T22:27:14.782Z,11.40
2018-06-05T22:29:43.568Z,10.57
2018-06-05T22:32:13.066Z,10.70
2018-06-05T22:34:41.955Z,10.30
2018-06-05T22:37:10.742Z,10.73
2018-06-05T22:39:40.093Z,11.00
2018-06-05T22:42:09.510Z,11.23
2018-06-05T22:44:38.596Z,11.97
2018-06-05T22:47:07.525Z,10.87
2018-06-05T22:49:37.077Z,10.33
2018-06-05T22:52:06.227Z,11.90
2018-06-05T22:54:36.089Z,11.87
2018-06-05T22:57:04.923Z,13.50
2018-06-05T22:59:35.307Z,14.10
2018-06-05T23:02:04.473Z,12.73
2018-06-05T23:04:34.222Z,11.77
2018-06-05T23:07:03.357Z,11.63
2018-06-05T23:09:32.149Z,12.40
2018-06-05T23:12:01.511Z,11.23
2018-06-05T23:14:30.596Z,11.30
2018-06-05T23:17:00.335Z,11.57
2018-06-05T23:19:29.573Z,11.80
2018-06-05T23:21:58.487Z,12.13
2018-06-05T23:24:27.894Z,12.50
2018-06-05T23:26:57.171Z,12.40
2018-06-05T23:29:26.059Z,12.97
2018-06-05T23:31:55.635Z,12.73
2018-06-05T23:34:24.566Z,12.63
2018-06-05T23:36:53.391Z,12.33
2018-06-05T23:39:22.847Z,12.23
2018-06-05T23:41:51.914Z,11.17
2018-06-05T23:44:21.040Z,11.63
2018-06-05T23:46:50.198Z,12.27
2018-06-05T23:49:19.222Z,11.20
2018-06-05T23:51:48.789Z,13.00
2018-06-05T23:54:17.819Z,12.90
2018-06-05T23:56:47.013Z,12.70
2018-06-05T23:59:15.979Z,12.17
